Atlantic Beach, NC (28512)

11:23 AM EST on February 09, 2016 (GMT -0500)
Sound View | | Change Station
CLOSE
Current Station
Personal Weather Station
Location: Newport, NC
Elevation: 13 ft
Nearby Weather Stations

Elev 13 ft 34.73 °N, 76.86 °W | Updated 6 minutes ago

Mostly Cloudy
Mostly Cloudy
51.8 °F
Feels Like 51.8 °F
N
3.2
Wind Variable Wind from WSW

Today
High -- | Low -- °F
--% Chance of Precip.
Yesterday
High -- | Low -- °F
Precip. -- in
Pressure 29.70 in
Visibility 10.0 miles
Clouds Scattered Clouds 4000 ft
Mostly Cloudy 6000 ft
Dew Point 38 °F
Humidity 60%
Rainfall 0.00 in
Snow Depth Not available.
6:59 AM 5:44 PM
New Moon, 2% visible
METAR KMRH 091558Z AUTO 28011KT 10SM SCT040 BKN060 08/01 A2970 RMK AO2 SLP056 T00830011 TSNO
Pressure 29.70 in
Visibility 10.0 miles
Clouds Scattered Clouds 4000 ft
Mostly Cloudy 6000 ft
Dew Point 38 °F
Humidity 60%
Rainfall 0.00 in
Snow Depth Not available.
6:59 AM 5:44 PM
New Moon, 2% visible
METAR KMRH 091558Z AUTO 28011KT 10SM SCT040 BKN060 08/01 A2970 RMK AO2 SLP056 T00830011 TSNO

10-Day Weather Forecast

Almanac

Astronomy

Feb. 09, 2016 Rise Set
Actual Time
Civil Twilight
Nautical Twilight
Astronomical Twilight
Moon
Length of Visible Light
Length of Day
Tomorrow will be .
, % of the Moon is Illuminated

Today's Extremes

State Highs State Lows

Community

WunderPhotos

Upload Photos

1,891,633 photos uploaded!

WunderBlog® & News

Nearby

Air Quality

  Air Quality AQ Index Pollutant
Not available.

Snow Depth

Station Depth Elevation

Earthquake Activity

City Distance Mag. Time & Date
Minimum magnitude displayed is 2.5.

Coastal Water Temperatures

Place Temperature

Stations

Nearby Weather Stations

Station Location Temp. Windchill Dew Point Humidity Wind Precip. Elev Updated Type
                   

Watches & Warnings

There are currently no watches in effect.